createdAt,value
2022-08-27T00:00:29.355Z,19.89
2022-08-27T00:02:56.063Z,19.98
2022-08-27T00:05:23.254Z,19.94
2022-08-27T00:07:49.981Z,20.10
2022-08-27T00:10:22.437Z,20.13
2022-08-27T00:12:49.202Z,20.19
2022-08-27T00:15:17.783Z,20.17
2022-08-27T00:17:46.485Z,20.24
2022-08-27T00:20:16.460Z,20.19
2022-08-27T00:22:43.625Z,20.00
2022-08-27T00:25:11.935Z,19.85
2022-08-27T00:27:39.299Z,19.84
2022-08-27T00:30:10.853Z,19.86
2022-08-27T00:32:38.655Z,19.71
2022-08-27T00:35:05.718Z,19.58
2022-08-27T00:37:33.296Z,19.58
2022-08-27T00:40:00.264Z,19.65
2022-08-27T00:42:28.267Z,19.68
2022-08-27T00:44:59.305Z,19.74
2022-08-27T00:47:29.465Z,19.65
2022-08-27T00:50:01.362Z,19.55
2022-08-27T00:52:34.620Z,19.58
2022-08-27T00:55:18.492Z,19.57
2022-08-27T00:57:49.645Z,19.46
2022-08-27T01:00:19.653Z,19.51
2022-08-27T01:02:47.515Z,19.53
2022-08-27T01:05:22.980Z,19.43
2022-08-27T01:07:53.559Z,19.25
2022-08-27T01:10:22.596Z,19.14
2022-08-27T01:12:53.469Z,19.03
2022-08-27T01:15:22.664Z,19.17
2022-08-27T01:17:50.408Z,19.25
2022-08-27T01:20:24.754Z,19.37
2022-08-27T01:23:14.778Z,19.26
2022-08-27T01:25:45.840Z,19.15
2022-08-27T01:28:14.308Z,19.14
2022-08-27T01:30:41.340Z,19.08
2022-08-27T01:33:11.122Z,19.03
2022-08-27T01:35:40.161Z,19.03
2022-08-27T01:38:07.322Z,19.04
2022-08-27T01:40:38.635Z,19.02
2022-08-27T01:43:06.498Z,18.99
2022-08-27T01:45:36.892Z,19.01
2022-08-27T01:48:04.755Z,19.01
2022-08-27T01:50:35.954Z,19.13
2022-08-27T01:53:09.548Z,19.17
2022-08-27T01:55:37.207Z,19.23
2022-08-27T01:58:04.612Z,19.32
2022-08-27T02:00:36.597Z,19.28
2022-08-27T02:03:04.176Z,19.10
2022-08-27T02:05:30.830Z,19.03
2022-08-27T02:07:58.083Z,19.01
2022-08-27T02:10:31.710Z,19.06
2022-08-27T02:12:58.399Z,19.01
2022-08-27T02:15:25.937Z,19.02
2022-08-27T02:17:52.876Z,19.12
2022-08-27T02:20:20.767Z,19.12
2022-08-27T02:22:47.570Z,19.09
2022-08-27T02:25:16.487Z,19.14
2022-08-27T02:27:43.918Z,19.25
2022-08-27T02:30:13.314Z,19.37
2022-08-27T02:32:40.241Z,19.41
2022-08-27T02:35:09.087Z,19.46
2022-08-27T02:37:37.434Z,19.43
2022-08-27T02:40:06.461Z,19.33
2022-08-27T02:42:33.337Z,19.38
2022-08-27T02:45:00.037Z,19.48
2022-08-27T02:47:26.974Z,19.49
2022-08-27T02:49:53.628Z,19.50
2022-08-27T02:52:24.940Z,19.46
2022-08-27T02:54:51.999Z,19.43
2022-08-27T02:57:18.652Z,19.42
2022-08-27T02:59:45.273Z,19.48
2022-08-27T03:02:12.020Z,19.49
2022-08-27T03:04:38.805Z,19.49
2022-08-27T03:07:05.505Z,19.60
2022-08-27T03:09:33.117Z,19.60
2022-08-27T03:12:00.473Z,19.59
2022-08-27T03:14:27.310Z,19.54
2022-08-27T03:16:54.754Z,19.48
2022-08-27T03:19:24.093Z,19.43
2022-08-27T03:21:54.517Z,19.43
2022-08-27T03:24:21.873Z,19.50
2022-08-27T03:26:52.583Z,19.43
2022-08-27T03:29:20.794Z,19.41
2022-08-27T03:31:47.433Z,19.43
2022-08-27T03:34:14.097Z,19.44
2022-08-27T03:36:48.859Z,19.47
2022-08-27T03:39:15.455Z,19.52
2022-08-27T03:41:55.311Z,19.57
2022-08-27T03:44:24.128Z,19.54
2022-08-27T03:46:52.338Z,19.55
2022-08-27T03:49:21.259Z,19.60
2022-08-27T03:51:49.896Z,19.50
2022-08-27T03:54:16.788Z,19.47
2022-08-27T03:56:43.503Z,19.50
2022-08-27T03:59:10.332Z,19.57
2022-08-27T04:01:37.142Z,19.59
2022-08-27T04:04:03.961Z,19.52
2022-08-27T04:06:30.571Z,19.41
2022-08-27T04:08:57.225Z,19.46
2022-08-27T04:11:23.898Z,19.46
2022-08-27T04:13:50.987Z,19.40
2022-08-27T04:16:17.737Z,19.29
2022-08-27T04:18:44.370Z,19.16
2022-08-27T04:21:13.817Z,19.29
2022-08-27T04:23:42.454Z,19.36
2022-08-27T04:26:10.892Z,19.36
2022-08-27T04:28:38.997Z,19.35
2022-08-27T04:31:06.804Z,19.33
2022-08-27T04:33:40.910Z,19.34
2022-08-27T04:36:10.067Z,19.37
2022-08-27T04:38:37.647Z,19.40
2022-08-27T04:41:22.994Z,19.38
2022-08-27T04:43:56.213Z,19.41
2022-08-27T04:46:32.132Z,19.42
2022-08-27T04:49:01.455Z,19.42
2022-08-27T04:51:29.631Z,19.40
2022-08-27T04:53:57.550Z,19.40
2022-08-27T04:56:28.317Z,19.39
2022-08-27T04:58:55.408Z,19.37
2022-08-27T05:01:25.754Z,19.36
2022-08-27T05:03:53.533Z,19.35
2022-08-27T05:06:21.152Z,19.43
2022-08-27T05:08:50.031Z,19.40
2022-08-27T05:11:19.099Z,19.36
2022-08-27T05:13:46.780Z,19.34
2022-08-27T05:16:23.350Z,19.40
2022-08-27T05:18:51.675Z,19.37
2022-08-27T05:21:28.991Z,19.46
2022-08-27T05:23:58.705Z,19.38
2022-08-27T05:26:26.975Z,19.37
2022-08-27T05:28:54.141Z,19.43
2022-08-27T05:31:22.345Z,19.35
2022-08-27T05:33:49.630Z,19.35
2022-08-27T05:36:22.643Z,19.30
2022-08-27T05:38:50.312Z,19.34
2022-08-27T05:41:20.344Z,19.30
2022-08-27T05:43:50.492Z,19.28
2022-08-27T05:48:46.639Z,19.35
2022-08-27T05:51:16.149Z,19.38
2022-08-27T05:53:47.207Z,19.36
2022-08-27T05:56:19.552Z,19.33
2022-08-27T05:59:06.215Z,19.32
2022-08-27T06:01:39.659Z,19.33
2022-08-27T06:04:06.672Z,19.33
2022-08-27T06:06:39.050Z,19.36
2022-08-27T06:09:07.028Z,19.37
2022-08-27T06:11:34.355Z,19.40
2022-08-27T06:14:01.122Z,19.34
2022-08-27T06:16:27.974Z,19.33
2022-08-27T06:18:57.200Z,19.34
2022-08-27T06:21:24.979Z,19.27
2022-08-27T06:23:54.368Z,19.26
2022-08-27T06:26:23.914Z,19.24
2022-08-27T06:28:51.036Z,19.24
2022-08-27T06:31:22.257Z,19.35
2022-08-27T06:33:51.790Z,19.37
2022-08-27T06:36:22.928Z,19.36
2022-08-27T06:38:53.258Z,19.36
2022-08-27T06:41:23.833Z,19.43
2022-08-27T06:43:51.813Z,19.39
2022-08-27T06:46:20.517Z,19.31
2022-08-27T06:48:49.375Z,19.26
2022-08-27T06:51:19.109Z,19.19
2022-08-27T06:53:47.294Z,19.28
2022-08-27T06:56:16.154Z,19.29
2022-08-27T06:58:43.770Z,19.24
2022-08-27T07:01:20.322Z,19.12
2022-08-27T07:03:47.147Z,19.22
2022-08-27T07:06:16.998Z,19.29
2022-08-27T07:08:45.086Z,19.35
2022-08-27T07:11:20.872Z,19.37
2022-08-27T07:13:48.723Z,19.34
2022-08-27T07:16:19.089Z,19.27
2022-08-27T07:18:46.243Z,19.33
2022-08-27T07:21:13.028Z,19.40
2022-08-27T07:23:40.285Z,19.46
2022-08-27T07:26:09.160Z,19.42
2022-08-27T07:28:37.966Z,19.44
2022-08-27T07:31:06.212Z,19.47
2022-08-27T07:33:32.887Z,19.49
2022-08-27T07:35:59.559Z,19.51
2022-08-27T07:38:26.395Z,19.39
2022-08-27T07:40:53.603Z,19.43
2022-08-27T07:43:38.961Z,19.42
2022-08-27T07:46:05.891Z,19.53
2022-08-27T07:48:34.472Z,19.50
2022-08-27T07:51:05.247Z,19.41
2022-08-27T07:53:33.102Z,19.32
2022-08-27T07:56:04.868Z,19.33
2022-08-27T07:58:32.412Z,19.33
2022-08-27T08:00:59.434Z,19.22
2022-08-27T08:03:26.980Z,19.29
2022-08-27T08:05:54.204Z,19.41
2022-08-27T08:08:22.027Z,19.46
2022-08-27T08:10:48.789Z,19.54
2022-08-27T08:13:19.658Z,19.75
2022-08-27T08:15:47.355Z,19.85
2022-08-27T08:18:14.148Z,19.82
2022-08-27T08:20:57.521Z,19.82
2022-08-27T08:23:25.157Z,19.81
2022-08-27T08:25:51.764Z,19.72
2022-08-27T08:28:18.713Z,19.77
2022-08-27T08:30:47.621Z,19.88
2022-08-27T08:33:14.513Z,19.94
2022-08-27T08:35:41.518Z,20.00
2022-08-27T08:38:09.816Z,19.92
2022-08-27T08:40:40.887Z,19.98
2022-08-27T08:43:20.281Z,19.99
2022-08-27T08:45:48.536Z,20.18
2022-08-27T08:48:20.882Z,20.13
2022-08-27T08:51:01.733Z,20.21
2022-08-27T08:53:59.150Z,20.25
2022-08-27T08:56:31.775Z,20.28
2022-08-27T08:59:38.156Z,20.32
2022-08-27T09:02:13.542Z,20.36
2022-08-27T09:04:42.057Z,20.33
2022-08-27T09:07:35.111Z,20.27
2022-08-27T09:10:13.778Z,20.34
2022-08-27T09:12:41.456Z,20.43
2022-08-27T09:15:28.878Z,20.43
2022-08-27T09:18:14.755Z,20.47
2022-08-27T09:20:46.251Z,20.49
2022-08-27T09:23:26.791Z,20.49
2022-08-27T09:25:53.639Z,20.38
2022-08-27T09:28:43.709Z,20.49
2022-08-27T09:31:15.507Z,20.60
2022-08-27T09:33:56.142Z,20.68
2022-08-27T09:36:24.152Z,20.59
2022-08-27T09:38:58.227Z,20.66
2022-08-27T09:41:29.629Z,20.65
2022-08-27T09:43:58.797Z,20.58
2022-08-27T09:46:27.152Z,20.65
2022-08-27T09:48:54.887Z,20.68
2022-08-27T09:51:25.613Z,20.75
2022-08-27T09:54:02.018Z,20.75
2022-08-27T09:56:39.178Z,20.83
2022-08-27T09:59:22.894Z,20.75
2022-08-27T10:01:53.325Z,20.79
2022-08-27T10:04:28.591Z,20.83
2022-08-27T10:06:55.334Z,20.81
2022-08-27T10:09:21.893Z,20.78
2022-08-27T10:11:59.278Z,20.73
2022-08-27T10:14:32.967Z,20.87
2022-08-27T10:17:15.623Z,20.95
2022-08-27T10:20:12.910Z,21.00
2022-08-27T10:22:59.330Z,20.99
2022-08-27T10:25:39.502Z,21.02
2022-08-27T10:28:23.565Z,21.23
2022-08-27T10:31:18.691Z,21.15
2022-08-27T10:34:21.068Z,21.03
2022-08-27T10:37:00.445Z,21.12
2022-08-27T10:40:09.343Z,21.12
2022-08-27T10:42:42.539Z,21.28
2022-08-27T10:45:41.604Z,21.35
2022-08-27T10:48:24.310Z,21.29
2022-08-27T10:51:24.373Z,21.25
2022-08-27T10:53:54.135Z,21.30
2022-08-27T10:56:31.347Z,21.33
2022-08-27T10:59:07.063Z,21.37
2022-08-27T11:01:48.063Z,21.39
2022-08-27T11:04:21.354Z,21.45
2022-08-27T11:06:57.870Z,21.36
2022-08-27T11:09:46.658Z,21.17
2022-08-27T11:12:19.297Z,21.17
2022-08-27T11:15:25.485Z,21.22
2022-08-27T11:18:11.357Z,21.31
2022-08-27T11:20:43.682Z,21.47
2022-08-27T11:23:16.257Z,21.42
2022-08-27T11:25:52.917Z,21.46
2022-08-27T11:28:30.020Z,21.48
2022-08-27T11:31:23.227Z,21.58
2022-08-27T11:33:59.581Z,21.62
2022-08-27T11:37:44.993Z,21.57
2022-08-27T11:40:42.306Z,21.60
2022-08-27T11:43:17.552Z,21.64
2022-08-27T11:46:00.154Z,21.56
2022-08-27T11:48:30.856Z,21.58
2022-08-27T11:51:02.681Z,21.63
2022-08-27T11:53:42.814Z,21.51
2022-08-27T11:56:33.661Z,21.41
2022-08-27T11:59:28.483Z,21.49
2022-08-27T12:02:09.745Z,21.57
2022-08-27T12:04:40.786Z,21.52
2022-08-27T12:07:13.756Z,21.60
2022-08-27T12:10:06.706Z,21.64
2022-08-27T12:12:49.007Z,21.70
2022-08-27T12:15:34.180Z,21.63
2022-08-27T12:18:15.849Z,21.74
2022-08-27T12:20:47.832Z,21.73
2022-08-27T12:23:43.889Z,21.66
2022-08-27T12:26:25.479Z,21.74
2022-08-27T12:29:16.136Z,21.74
2022-08-27T12:31:46.480Z,21.65
2022-08-27T12:34:23.618Z,21.64
2022-08-27T12:36:53.403Z,21.68
2022-08-27T12:39:28.377Z,21.69
2022-08-27T12:41:55.703Z,21.75
2022-08-27T12:44:32.778Z,21.81
2022-08-27T12:47:06.022Z,21.75
2022-08-27T12:49:55.531Z,21.78
2022-08-27T12:52:22.633Z,21.82
2022-08-27T12:55:10.957Z,21.88
2022-08-27T12:57:49.179Z,21.95
2022-08-27T13:00:19.665Z,22.07
2022-08-27T13:03:03.982Z,22.11
2022-08-27T13:05:44.162Z,22.17
2022-08-27T13:08:37.629Z,22.04
2022-08-27T13:11:19.394Z,21.97
2022-08-27T13:13:46.215Z,22.06
2022-08-27T13:16:13.091Z,22.17
2022-08-27T13:18:40.519Z,22.17
2022-08-27T13:21:18.209Z,22.08
2022-08-27T13:23:52.032Z,22.08
2022-08-27T13:26:22.306Z,22.09
2022-08-27T13:28:49.637Z,22.16
2022-08-27T13:31:16.970Z,22.19
2022-08-27T13:33:44.599Z,22.09
2022-08-27T13:36:12.184Z,21.94
2022-08-27T13:38:49.955Z,21.98
2022-08-27T13:41:23.003Z,22.10
2022-08-27T13:43:49.933Z,22.15
2022-08-27T13:46:20.752Z,21.97
2022-08-27T13:48:50.345Z,22.04
2022-08-27T13:51:25.566Z,22.16
2022-08-27T13:54:10.879Z,22.19
2022-08-27T13:56:40.876Z,22.22
2022-08-27T13:59:19.297Z,22.17
2022-08-27T14:02:01.369Z,22.13
2022-08-27T14:04:43.785Z,22.14
2022-08-27T14:07:20.150Z,22.20
2022-08-27T14:09:54.493Z,22.16
2022-08-27T14:12:28.818Z,22.19
2022-08-27T14:15:15.439Z,22.16
2022-08-27T14:17:45.866Z,22.12
2022-08-27T14:20:15.655Z,22.23
2022-08-27T14:22:43.676Z,22.28
2022-08-27T14:25:11.774Z,22.31
2022-08-27T14:27:40.832Z,22.36
2022-08-27T14:30:28.941Z,22.30
2022-08-27T14:33:00.982Z,22.29
2022-08-27T14:35:34.748Z,22.29
2022-08-27T14:38:09.986Z,22.17
2022-08-27T14:40:36.791Z,22.07
2022-08-27T14:43:03.920Z,22.11
2022-08-27T14:45:30.921Z,22.18
2022-08-27T14:48:02.153Z,22.18
2022-08-27T14:50:29.300Z,22.14
2022-08-27T14:52:55.906Z,22.17
2022-08-27T14:55:23.317Z,22.15
2022-08-27T14:57:50.750Z,22.10
2022-08-27T15:00:17.548Z,22.16
2022-08-27T15:02:48.042Z,22.26
2022-08-27T15:05:16.969Z,22.23
2022-08-27T15:07:47.208Z,22.23
2022-08-27T15:10:14.731Z,22.25
2022-08-27T15:12:41.844Z,22.25
2022-08-27T15:15:10.072Z,22.27
2022-08-27T15:17:37.046Z,22.21
2022-08-27T15:20:13.637Z,22.28
2022-08-27T15:22:48.316Z,22.23
2022-08-27T15:25:15.471Z,22.35
2022-08-27T15:27:42.205Z,22.41
2022-08-27T15:30:12.789Z,22.44
2022-08-27T15:32:48.369Z,22.29
2022-08-27T15:35:18.584Z,22.27
2022-08-27T15:37:45.608Z,22.20
2022-08-27T15:40:14.791Z,22.24
2022-08-27T15:42:41.998Z,22.35
2022-08-27T15:45:10.061Z,22.33
2022-08-27T15:47:36.786Z,22.33
2022-08-27T15:50:04.970Z,22.36
2022-08-27T15:52:40.393Z,22.32
2022-08-27T15:55:24.761Z,22.37
2022-08-27T15:57:52.139Z,22.32
2022-08-27T16:00:18.986Z,22.34
2022-08-27T16:02:46.171Z,22.33
2022-08-27T16:05:15.026Z,22.22
2022-08-27T16:07:42.113Z,22.28
2022-08-27T16:10:10.023Z,22.36
2022-08-27T16:12:37.608Z,22.37
2022-08-27T16:15:05.747Z,22.38
2022-08-27T16:17:33.087Z,22.38
2022-08-27T16:20:00.196Z,22.33
2022-08-27T16:22:26.897Z,22.35
2022-08-27T16:24:53.527Z,22.38
2022-08-27T16:27:20.399Z,22.42
2022-08-27T16:29:47.105Z,22.37
2022-08-27T16:32:17.236Z,22.33
2022-08-27T16:34:47.258Z,22.21
2022-08-27T16:37:13.987Z,22.20
2022-08-27T16:39:41.552Z,22.27
2022-08-27T16:42:10.071Z,22.32
2022-08-27T16:44:37.529Z,22.30
2022-08-27T16:47:05.814Z,22.26
2022-08-27T16:49:51.479Z,22.23
2022-08-27T16:52:20.773Z,22.24
2022-08-27T16:54:47.693Z,22.21
2022-08-27T16:57:14.670Z,22.21
2022-08-27T16:59:41.494Z,22.27
2022-08-27T17:02:21.481Z,22.17
2022-08-27T17:05:07.311Z,22.07
2022-08-27T17:07:40.343Z,22.15
2022-08-27T17:10:13.110Z,22.14
2022-08-27T17:12:40.801Z,22.22
2022-08-27T17:15:09.560Z,22.29
2022-08-27T17:17:38.961Z,22.12
2022-08-27T17:20:06.750Z,22.16
2022-08-27T17:22:34.738Z,22.17
2022-08-27T17:25:01.488Z,22.10
2022-08-27T17:27:28.210Z,22.14
2022-08-27T17:29:54.977Z,22.04
2022-08-27T17:32:21.838Z,22.03
2022-08-27T17:34:48.576Z,22.10
2022-08-27T17:37:15.269Z,21.97
2022-08-27T17:39:45.317Z,21.97
2022-08-27T17:42:11.986Z,22.05
2022-08-27T17:44:38.927Z,22.02
2022-08-27T17:47:07.280Z,22.04
2022-08-27T17:49:34.407Z,22.05
2022-08-27T17:52:09.545Z,22.11
2022-08-27T17:54:40.704Z,22.04
2022-08-27T17:57:15.966Z,21.98
2022-08-27T17:59:42.980Z,21.95
2022-08-27T18:02:13.956Z,21.86
2022-08-27T18:04:40.623Z,21.93
2022-08-27T18:07:07.622Z,21.86
2022-08-27T18:09:34.228Z,21.78
2022-08-27T18:12:01.659Z,21.69
2022-08-27T18:14:28.360Z,21.66
2022-08-27T18:16:55.085Z,21.68
2022-08-27T18:19:22.193Z,21.71
2022-08-27T18:21:49.799Z,21.73
2022-08-27T18:24:16.816Z,21.81
2022-08-27T18:26:44.706Z,21.84
2022-08-27T18:29:13.127Z,21.93
2022-08-27T18:31:40.052Z,21.96
2022-08-27T18:34:06.934Z,21.85
2022-08-27T18:36:33.704Z,21.88
2022-08-27T18:39:00.473Z,21.78
2022-08-27T18:41:30.328Z,21.71
2022-08-27T18:43:58.371Z,21.66
2022-08-27T18:46:25.144Z,21.64
2022-08-27T18:48:51.835Z,21.58
2022-08-27T18:51:19.759Z,21.58
2022-08-27T18:53:48.150Z,21.59
2022-08-27T18:56:18.621Z,21.62
2022-08-27T18:58:46.191Z,21.68
2022-08-27T19:01:16.831Z,21.73
2022-08-27T19:03:46.746Z,21.65
2022-08-27T19:06:16.201Z,21.63
2022-08-27T19:08:43.461Z,21.69
2022-08-27T19:11:10.728Z,21.74
2022-08-27T19:13:37.767Z,21.59
2022-08-27T19:16:13.735Z,21.52
2022-08-27T19:18:41.628Z,21.59
2022-08-27T19:21:08.533Z,21.50
2022-08-27T19:23:35.870Z,21.50
2022-08-27T19:26:03.115Z,21.48
2022-08-27T19:28:45.040Z,21.45
2022-08-27T19:31:13.111Z,21.44
2022-08-27T19:33:40.331Z,21.43
2022-08-27T19:36:11.466Z,21.46
2022-08-27T19:38:42.780Z,21.57
2022-08-27T19:41:09.413Z,21.58
2022-08-27T19:43:36.527Z,21.62
2022-08-27T19:46:04.732Z,21.57
2022-08-27T19:48:34.115Z,21.59
2022-08-27T19:51:01.084Z,21.60
2022-08-27T19:53:27.847Z,21.63
2022-08-27T19:55:54.534Z,21.50
2022-08-27T19:58:21.485Z,21.46
2022-08-27T20:00:48.618Z,21.51
2022-08-27T20:03:15.749Z,21.52
2022-08-27T20:05:43.748Z,21.51
2022-08-27T20:08:10.614Z,21.45
2022-08-27T20:10:40.374Z,21.46
2022-08-27T20:13:07.930Z,21.48
2022-08-27T20:15:36.050Z,21.47
2022-08-27T20:18:05.767Z,21.40
2022-08-27T20:20:33.507Z,21.47
2022-08-27T20:23:03.527Z,21.53
2022-08-27T20:25:30.800Z,21.63
2022-08-27T20:27:57.443Z,21.62
2022-08-27T20:30:26.918Z,21.62
2022-08-27T20:32:53.965Z,21.59
2022-08-27T20:35:21.812Z,21.56
2022-08-27T20:37:48.664Z,21.43
2022-08-27T20:40:27.168Z,21.39
2022-08-27T20:42:54.095Z,21.24
2022-08-27T20:45:20.853Z,21.27
2022-08-27T20:47:49.583Z,21.26
2022-08-27T20:50:17.706Z,21.19
2022-08-27T20:52:45.383Z,21.25
2022-08-27T20:55:14.148Z,21.29
2022-08-27T20:58:11.770Z,21.27
2022-08-27T21:00:41.621Z,21.25
2022-08-27T21:03:10.086Z,21.22
2022-08-27T21:05:38.044Z,21.33
2022-08-27T21:08:06.253Z,21.30
2022-08-27T21:10:33.994Z,21.35
2022-08-27T21:13:04.537Z,21.47
2022-08-27T21:15:31.994Z,21.51
2022-08-27T21:17:58.579Z,21.49
2022-08-27T21:20:25.232Z,21.45
2022-08-27T21:22:51.922Z,21.38
2022-08-27T21:25:18.742Z,21.41
2022-08-27T21:27:45.315Z,21.33
2022-08-27T21:30:14.415Z,21.24
2022-08-27T21:32:41.599Z,21.16
2022-08-27T21:35:08.701Z,21.08
2022-08-27T21:37:35.751Z,21.09
2022-08-27T21:40:06.021Z,21.09
2022-08-27T21:42:32.771Z,21.17
2022-08-27T21:44:59.462Z,21.10
2022-08-27T21:47:26.168Z,21.00
2022-08-27T21:49:52.741Z,21.04
2022-08-27T21:52:19.456Z,21.03
2022-08-27T21:54:46.032Z,20.88
2022-08-27T21:57:15.444Z,20.67
2022-08-27T21:59:47.848Z,20.58
2022-08-27T22:02:38.636Z,20.77
2022-08-27T22:05:03.267Z,20.60
2022-08-27T22:07:29.900Z,20.49
2022-08-27T22:09:56.572Z,20.40
2022-08-27T22:12:24.361Z,20.64
2022-08-27T22:14:50.981Z,20.65
2022-08-27T22:17:17.609Z,20.59
2022-08-27T22:19:44.255Z,20.57
2022-08-27T22:22:10.886Z,20.67
2022-08-27T22:24:37.543Z,20.73
2022-08-27T22:27:04.322Z,20.51
2022-08-27T22:29:31.043Z,20.30
2022-08-27T22:31:58.411Z,20.42
2022-08-27T22:34:25.111Z,20.34
2022-08-27T22:36:51.684Z,20.47
2022-08-27T22:39:18.632Z,20.55
2022-08-27T22:41:48.714Z,20.44
2022-08-27T22:44:16.032Z,20.56
2022-08-27T22:46:42.979Z,20.45
2022-08-27T22:49:09.880Z,20.20
2022-08-27T22:51:36.509Z,20.24
2022-08-27T22:54:03.261Z,20.19
2022-08-27T22:56:29.859Z,20.25
2022-08-27T22:58:56.693Z,20.37
2022-08-27T23:01:24.623Z,20.29
2022-08-27T23:03:53.041Z,20.28
2022-08-27T23:06:20.125Z,20.26
2022-08-27T23:08:46.961Z,20.33
2022-08-27T23:11:14.094Z,20.42
2022-08-27T23:13:41.052Z,20.45
2022-08-27T23:16:09.170Z,20.30
2022-08-27T23:18:36.948Z,20.17
2022-08-27T23:21:05.891Z,19.85
2022-08-27T23:23:33.950Z,20.05
2022-08-27T23:26:19.119Z,20.09
2022-08-27T23:28:46.223Z,19.92
2022-08-27T23:31:13.838Z,19.87
2022-08-27T23:33:40.602Z,19.89
2022-08-27T23:36:07.774Z,20.02
2022-08-27T23:38:34.589Z,20.01
2022-08-27T23:41:01.696Z,19.96
2022-08-27T23:43:28.608Z,20.02
2022-08-27T23:45:55.208Z,19.76
2022-08-27T23:48:21.964Z,19.72
2022-08-27T23:50:48.713Z,19.79
2022-08-27T23:53:15.444Z,19.89
2022-08-27T23:55:42.040Z,19.59
2022-08-27T23:58:09.763Z,19.62
